sensor_id;sensor_type;location;lat;lon;timestamp;P1;durP1;ratioP1;P2;durP2;ratioP2
50393;SDS011;36308;46.312;25.288;2023-07-31T00:02:19;6.65;;;5.30;;
50393;SDS011;36308;46.312;25.288;2023-07-31T00:04:45;6.07;;;5.30;;
50393;SDS011;36308;46.312;25.288;2023-07-31T00:07:11;7.45;;;4.95;;
50393;SDS011;36308;46.312;25.288;2023-07-31T00:09:36;6.15;;;5.00;;
50393;SDS011;36308;46.312;25.288;2023-07-31T00:12:02;6.30;;;4.80;;
50393;SDS011;36308;46.312;25.288;2023-07-31T00:14:28;6.07;;;4.63;;
50393;SDS011;36308;46.312;25.288;2023-07-31T00:16:53;6.75;;;4.72;;
50393;SDS011;36308;46.312;25.288;2023-07-31T00:19:19;5.07;;;4.50;;
50393;SDS011;36308;46.312;25.288;2023-07-31T00:21:44;7.10;;;4.80;;
50393;SDS011;36308;46.312;25.288;2023-07-31T00:24:10;5.90;;;4.85;;
50393;SDS011;36308;46.312;25.288;2023-07-31T00:26:35;5.47;;;4.90;;
50393;SDS011;36308;46.312;25.288;2023-07-31T00:29:01;7.03;;;4.82;;
50393;SDS011;36308;46.312;25.288;2023-07-31T00:31:26;6.43;;;4.93;;
50393;SDS011;36308;46.312;25.288;2023-07-31T00:33:52;5.35;;;4.75;;
50393;SDS011;36308;46.312;25.288;2023-07-31T00:36:17;7.00;;;4.65;;
50393;SDS011;36308;46.312;25.288;2023-07-31T00:41:27;5.28;;;4.78;;
50393;SDS011;36308;46.312;25.288;2023-07-31T00:43:53;7.32;;;5.05;;
50393;SDS011;36308;46.312;25.288;2023-07-31T00:46:18;7.22;;;5.00;;
50393;SDS011;36308;46.312;25.288;2023-07-31T00:48:44;7.13;;;5.10;;
50393;SDS011;36308;46.312;25.288;2023-07-31T00:51:10;5.55;;;4.95;;
50393;SDS011;36308;46.312;25.288;2023-07-31T00:53:36;6.07;;;4.95;;
50393;SDS011;36308;46.312;25.288;2023-07-31T00:56:02;7.10;;;4.80;;
50393;SDS011;36308;46.312;25.288;2023-07-31T00:58:28;7.65;;;4.95;;
50393;SDS011;36308;46.312;25.288;2023-07-31T01:00:54;5.82;;;4.65;;
50393;SDS011;36308;46.312;25.288;2023-07-31T01:03:20;6.85;;;4.93;;
50393;SDS011;36308;46.312;25.288;2023-07-31T01:08:38;7.22;;;4.82;;
50393;SDS011;36308;46.312;25.288;2023-07-31T01:11:17;7.28;;;5.22;;
50393;SDS011;36308;46.312;25.288;2023-07-31T01:13:49;7.93;;;4.57;;
50393;SDS011;36308;46.312;25.288;2023-07-31T01:16:14;7.50;;;4.97;;
50393;SDS011;36308;46.312;25.288;2023-07-31T01:18:40;5.97;;;5.13;;
50393;SDS011;36308;46.312;25.288;2023-07-31T01:26:39;5.38;;;4.82;;
50393;SDS011;36308;46.312;25.288;2023-07-31T01:29:20;10.05;;;5.45;;
50393;SDS011;36308;46.312;25.288;2023-07-31T01:31:55;7.47;;;4.80;;
50393;SDS011;36308;46.312;25.288;2023-07-31T01:34:23;8.32;;;4.85;;
50393;SDS011;36308;46.312;25.288;2023-07-31T01:36:49;6.82;;;4.78;;
50393;SDS011;36308;46.312;25.288;2023-07-31T01:39:15;5.68;;;4.65;;
50393;SDS011;36308;46.312;25.288;2023-07-31T01:41:40;6.65;;;5.05;;
50393;SDS011;36308;46.312;25.288;2023-07-31T01:44:06;7.15;;;5.10;;
50393;SDS011;36308;46.312;25.288;2023-07-31T01:46:32;6.22;;;4.68;;
50393;SDS011;36308;46.312;25.288;2023-07-31T01:48:57;6.43;;;4.72;;
50393;SDS011;36308;46.312;25.288;2023-07-31T01:51:23;6.80;;;5.00;;
50393;SDS011;36308;46.312;25.288;2023-07-31T01:53:48;6.85;;;5.10;;
50393;SDS011;36308;46.312;25.288;2023-07-31T01:56:14;6.63;;;5.50;;
50393;SDS011;36308;46.312;25.288;2023-07-31T01:58:39;5.82;;;4.90;;
50393;SDS011;36308;46.312;25.288;2023-07-31T02:01:05;5.88;;;4.97;;
50393;SDS011;36308;46.312;25.288;2023-07-31T02:03:30;8.02;;;4.90;;
50393;SDS011;36308;46.312;25.288;2023-07-31T02:05:56;8.00;;;4.65;;
50393;SDS011;36308;46.312;25.288;2023-07-31T02:08:21;7.32;;;4.57;;
50393;SDS011;36308;46.312;25.288;2023-07-31T02:10:47;8.98;;;4.80;;
50393;SDS011;36308;46.312;25.288;2023-07-31T02:13:12;8.57;;;4.85;;
50393;SDS011;36308;46.312;25.288;2023-07-31T02:15:38;5.97;;;4.70;;
50393;SDS011;36308;46.312;25.288;2023-07-31T02:18:04;5.30;;;4.72;;
50393;SDS011;36308;46.312;25.288;2023-07-31T02:20:29;7.22;;;4.95;;
50393;SDS011;36308;46.312;25.288;2023-07-31T02:22:55;4.95;;;4.10;;
50393;SDS011;36308;46.312;25.288;2023-07-31T02:25:20;5.20;;;4.15;;
50393;SDS011;36308;46.312;25.288;2023-07-31T02:27:46;6.25;;;4.32;;
50393;SDS011;36308;46.312;25.288;2023-07-31T02:30:11;4.97;;;4.47;;
50393;SDS011;36308;46.312;25.288;2023-07-31T02:32:37;5.43;;;4.22;;
50393;SDS011;36308;46.312;25.288;2023-07-31T02:35:02;5.60;;;4.82;;
50393;SDS011;36308;46.312;25.288;2023-07-31T02:37:28;6.20;;;4.53;;
50393;SDS011;36308;46.312;25.288;2023-07-31T02:39:54;6.28;;;4.30;;
50393;SDS011;36308;46.312;25.288;2023-07-31T02:42:20;6.25;;;5.32;;
50393;SDS011;36308;46.312;25.288;2023-07-31T02:44:45;5.03;;;4.55;;
50393;SDS011;36308;46.312;25.288;2023-07-31T02:47:11;6.57;;;4.60;;
50393;SDS011;36308;46.312;25.288;2023-07-31T02:49:36;5.65;;;5.05;;
50393;SDS011;36308;46.312;25.288;2023-07-31T02:52:02;6.70;;;5.22;;
50393;SDS011;36308;46.312;25.288;2023-07-31T02:54:27;7.13;;;5.68;;
50393;SDS011;36308;46.312;25.288;2023-07-31T02:56:53;8.25;;;6.13;;
50393;SDS011;36308;46.312;25.288;2023-07-31T02:59:19;7.97;;;5.43;;
50393;SDS011;36308;46.312;25.288;2023-07-31T03:01:45;8.05;;;5.72;;
50393;SDS011;36308;46.312;25.288;2023-07-31T03:04:11;6.32;;;5.70;;
50393;SDS011;36308;46.312;25.288;2023-07-31T03:06:36;7.90;;;6.25;;
50393;SDS011;36308;46.312;25.288;2023-07-31T03:09:02;6.68;;;5.60;;
50393;SDS011;36308;46.312;25.288;2023-07-31T03:11:27;7.43;;;6.07;;
50393;SDS011;36308;46.312;25.288;2023-07-31T03:13:53;8.02;;;6.65;;
50393;SDS011;36308;46.312;25.288;2023-07-31T03:16:19;7.53;;;6.18;;
50393;SDS011;36308;46.312;25.288;2023-07-31T03:18:44;9.18;;;6.53;;
50393;SDS011;36308;46.312;25.288;2023-07-31T03:21:10;7.47;;;6.63;;
50393;SDS011;36308;46.312;25.288;2023-07-31T03:23:35;8.68;;;7.07;;
50393;SDS011;36308;46.312;25.288;2023-07-31T03:26:01;8.23;;;6.25;;
50393;SDS011;36308;46.312;25.288;2023-07-31T03:28:29;9.00;;;6.90;;
50393;SDS011;36308;46.312;25.288;2023-07-31T03:30:54;8.40;;;6.70;;
50393;SDS011;36308;46.312;25.288;2023-07-31T03:33:20;9.85;;;6.63;;
50393;SDS011;36308;46.312;25.288;2023-07-31T03:35:46;13.55;;;7.13;;
50393;SDS011;36308;46.312;25.288;2023-07-31T03:38:11;7.75;;;6.47;;
50393;SDS011;36308;46.312;25.288;2023-07-31T03:40:37;9.27;;;6.68;;
50393;SDS011;36308;46.312;25.288;2023-07-31T03:43:02;10.68;;;6.78;;
50393;SDS011;36308;46.312;25.288;2023-07-31T03:45:28;7.97;;;6.28;;
50393;SDS011;36308;46.312;25.288;2023-07-31T03:47:53;7.38;;;6.63;;
50393;SDS011;36308;46.312;25.288;2023-07-31T03:50:19;7.95;;;6.45;;
50393;SDS011;36308;46.312;25.288;2023-07-31T03:52:45;9.98;;;6.60;;
50393;SDS011;36308;46.312;25.288;2023-07-31T03:55:10;9.73;;;6.30;;
50393;SDS011;36308;46.312;25.288;2023-07-31T03:57:36;7.30;;;6.22;;
50393;SDS011;36308;46.312;25.288;2023-07-31T04:00:02;7.55;;;6.43;;
50393;SDS011;36308;46.312;25.288;2023-07-31T04:02:28;9.10;;;6.63;;
50393;SDS011;36308;46.312;25.288;2023-07-31T04:04:53;7.95;;;6.68;;
50393;SDS011;36308;46.312;25.288;2023-07-31T04:07:18;9.20;;;6.47;;
50393;SDS011;36308;46.312;25.288;2023-07-31T04:09:44;8.32;;;6.68;;
50393;SDS011;36308;46.312;25.288;2023-07-31T04:12:10;11.43;;;6.75;;
50393;SDS011;36308;46.312;25.288;2023-07-31T04:14:35;7.57;;;6.78;;
50393;SDS011;36308;46.312;25.288;2023-07-31T04:17:01;9.60;;;7.18;;
50393;SDS011;36308;46.312;25.288;2023-07-31T04:19:26;8.38;;;6.60;;
50393;SDS011;36308;46.312;25.288;2023-07-31T04:21:51;9.05;;;7.35;;
50393;SDS011;36308;46.312;25.288;2023-07-31T04:24:17;10.25;;;7.25;;
50393;SDS011;36308;46.312;25.288;2023-07-31T04:26:49;8.30;;;7.35;;
50393;SDS011;36308;46.312;25.288;2023-07-31T04:29:15;8.98;;;6.78;;
50393;SDS011;36308;46.312;25.288;2023-07-31T04:31:41;8.43;;;7.22;;
50393;SDS011;36308;46.312;25.288;2023-07-31T04:34:06;10.38;;;7.50;;
50393;SDS011;36308;46.312;25.288;2023-07-31T04:36:32;7.70;;;6.53;;
50393;SDS011;36308;46.312;25.288;2023-07-31T04:38:58;8.18;;;7.32;;
50393;SDS011;36308;46.312;25.288;2023-07-31T04:41:24;9.82;;;7.18;;
50393;SDS011;36308;46.312;25.288;2023-07-31T04:43:49;8.80;;;7.25;;
50393;SDS011;36308;46.312;25.288;2023-07-31T04:46:15;10.50;;;7.20;;
50393;SDS011;36308;46.312;25.288;2023-07-31T04:48:40;8.43;;;6.93;;
50393;SDS011;36308;46.312;25.288;2023-07-31T04:51:06;8.52;;;7.50;;
50393;SDS011;36308;46.312;25.288;2023-07-31T04:53:31;9.48;;;7.55;;
50393;SDS011;36308;46.312;25.288;2023-07-31T04:55:57;9.57;;;6.95;;
50393;SDS011;36308;46.312;25.288;2023-07-31T04:58:23;9.27;;;7.38;;
50393;SDS011;36308;46.312;25.288;2023-07-31T05:00:48;11.35;;;7.47;;
50393;SDS011;36308;46.312;25.288;2023-07-31T05:03:13;11.20;;;7.97;;
50393;SDS011;36308;46.312;25.288;2023-07-31T05:05:39;9.98;;;7.95;;
50393;SDS011;36308;46.312;25.288;2023-07-31T05:08:05;9.70;;;7.85;;
50393;SDS011;36308;46.312;25.288;2023-07-31T05:10:30;9.07;;;7.43;;
50393;SDS011;36308;46.312;25.288;2023-07-31T05:12:56;10.82;;;8.10;;
50393;SDS011;36308;46.312;25.288;2023-07-31T05:15:22;9.25;;;7.43;;
50393;SDS011;36308;46.312;25.288;2023-07-31T05:17:47;13.48;;;7.45;;
50393;SDS011;36308;46.312;25.288;2023-07-31T05:20:12;9.52;;;7.43;;
50393;SDS011;36308;46.312;25.288;2023-07-31T05:22:39;9.30;;;7.43;;
50393;SDS011;36308;46.312;25.288;2023-07-31T05:25:05;9.65;;;8.15;;
50393;SDS011;36308;46.312;25.288;2023-07-31T05:27:31;10.70;;;8.43;;
50393;SDS011;36308;46.312;25.288;2023-07-31T05:29:57;10.20;;;7.47;;
50393;SDS011;36308;46.312;25.288;2023-07-31T05:32:22;10.85;;;6.90;;
50393;SDS011;36308;46.312;25.288;2023-07-31T05:34:50;11.05;;;7.55;;
50393;SDS011;36308;46.312;25.288;2023-07-31T05:37:17;8.50;;;7.18;;
50393;SDS011;36308;46.312;25.288;2023-07-31T05:39:42;8.95;;;7.35;;
50393;SDS011;36308;46.312;25.288;2023-07-31T05:42:08;7.88;;;6.40;;
50393;SDS011;36308;46.312;25.288;2023-07-31T05:44:34;11.48;;;6.70;;
50393;SDS011;36308;46.312;25.288;2023-07-31T05:46:59;10.43;;;6.60;;
50393;SDS011;36308;46.312;25.288;2023-07-31T05:49:25;6.55;;;5.70;;
50393;SDS011;36308;46.312;25.288;2023-07-31T05:51:50;7.13;;;5.82;;
50393;SDS011;36308;46.312;25.288;2023-07-31T05:54:16;7.60;;;6.38;;
50393;SDS011;36308;46.312;25.288;2023-07-31T05:56:41;9.02;;;6.40;;
50393;SDS011;36308;46.312;25.288;2023-07-31T05:59:08;6.95;;;6.13;;
50393;SDS011;36308;46.312;25.288;2023-07-31T06:01:35;9.30;;;6.55;;
50393;SDS011;36308;46.312;25.288;2023-07-31T06:04:01;8.90;;;6.90;;
50393;SDS011;36308;46.312;25.288;2023-07-31T06:06:28;10.43;;;7.45;;
50393;SDS011;36308;46.312;25.288;2023-07-31T06:08:54;7.43;;;6.65;;
50393;SDS011;36308;46.312;25.288;2023-07-31T06:11:22;10.30;;;6.85;;
50393;SDS011;36308;46.312;25.288;2023-07-31T06:13:48;8.80;;;7.30;;
50393;SDS011;36308;46.312;25.288;2023-07-31T06:16:14;8.88;;;5.88;;
50393;SDS011;36308;46.312;25.288;2023-07-31T06:18:40;7.65;;;5.68;;
50393;SDS011;36308;46.312;25.288;2023-07-31T06:21:07;9.75;;;5.05;;
50393;SDS011;36308;46.312;25.288;2023-07-31T06:23:33;8.25;;;5.60;;
50393;SDS011;36308;46.312;25.288;2023-07-31T06:25:58;6.07;;;5.32;;
50393;SDS011;36308;46.312;25.288;2023-07-31T06:28:31;6.65;;;5.55;;
50393;SDS011;36308;46.312;25.288;2023-07-31T06:30:57;8.15;;;5.10;;
50393;SDS011;36308;46.312;25.288;2023-07-31T06:33:23;7.80;;;5.32;;
50393;SDS011;36308;46.312;25.288;2023-07-31T06:35:49;8.73;;;5.15;;
50393;SDS011;36308;46.312;25.288;2023-07-31T06:38:15;7.18;;;5.00;;
50393;SDS011;36308;46.312;25.288;2023-07-31T06:40:43;5.53;;;4.78;;
50393;SDS011;36308;46.312;25.288;2023-07-31T06:43:09;7.78;;;5.13;;
50393;SDS011;36308;46.312;25.288;2023-07-31T06:45:35;8.48;;;5.40;;
50393;SDS011;36308;46.312;25.288;2023-07-31T06:48:02;5.40;;;4.55;;
50393;SDS011;36308;46.312;25.288;2023-07-31T06:50:29;6.78;;;4.57;;
50393;SDS011;36308;46.312;25.288;2023-07-31T06:52:58;6.63;;;4.55;;
50393;SDS011;36308;46.312;25.288;2023-07-31T06:55:24;8.75;;;5.43;;
50393;SDS011;36308;46.312;25.288;2023-07-31T06:57:52;7.18;;;5.28;;
50393;SDS011;36308;46.312;25.288;2023-07-31T07:00:19;6.20;;;4.80;;
50393;SDS011;36308;46.312;25.288;2023-07-31T07:02:46;5.97;;;4.70;;
50393;SDS011;36308;46.312;25.288;2023-07-31T07:05:15;8.07;;;4.63;;
50393;SDS011;36308;46.312;25.288;2023-07-31T07:07:43;6.75;;;4.70;;
50393;SDS011;36308;46.312;25.288;2023-07-31T07:10:09;5.38;;;4.47;;
50393;SDS011;36308;46.312;25.288;2023-07-31T07:12:35;5.75;;;3.50;;
50393;SDS011;36308;46.312;25.288;2023-07-31T07:15:01;5.10;;;2.75;;
50393;SDS011;36308;46.312;25.288;2023-07-31T07:17:28;3.38;;;2.20;;
50393;SDS011;36308;46.312;25.288;2023-07-31T07:19:58;3.72;;;2.17;;
50393;SDS011;36308;46.312;25.288;2023-07-31T07:22:24;3.38;;;1.65;;
50393;SDS011;36308;46.312;25.288;2023-07-31T07:24:50;1.85;;;1.48;;
50393;SDS011;36308;46.312;25.288;2023-07-31T07:27:16;1.60;;;1.40;;
50393;SDS011;36308;46.312;25.288;2023-07-31T07:29:41;1.95;;;1.30;;
50393;SDS011;36308;46.312;25.288;2023-07-31T07:32:07;1.95;;;1.40;;
50393;SDS011;36308;46.312;25.288;2023-07-31T07:34:33;3.65;;;1.75;;
50393;SDS011;36308;46.312;25.288;2023-07-31T07:36:58;2.10;;;1.60;;
50393;SDS011;36308;46.312;25.288;2023-07-31T07:39:24;3.22;;;1.50;;
50393;SDS011;36308;46.312;25.288;2023-07-31T07:41:50;2.40;;;1.42;;
50393;SDS011;36308;46.312;25.288;2023-07-31T07:44:15;1.83;;;1.40;;
50393;SDS011;36308;46.312;25.288;2023-07-31T07:46:41;2.75;;;1.70;;
50393;SDS011;36308;46.312;25.288;2023-07-31T07:49:06;2.38;;;1.70;;
50393;SDS011;36308;46.312;25.288;2023-07-31T07:51:32;4.30;;;1.65;;
50393;SDS011;36308;46.312;25.288;2023-07-31T07:53:57;2.17;;;1.60;;
50393;SDS011;36308;46.312;25.288;2023-07-31T07:56:25;2.47;;;1.60;;
50393;SDS011;36308;46.312;25.288;2023-07-31T07:58:51;1.80;;;1.48;;
50393;SDS011;36308;46.312;25.288;2023-07-31T08:01:17;2.03;;;1.50;;
50393;SDS011;36308;46.312;25.288;2023-07-31T08:03:42;2.63;;;1.60;;
50393;SDS011;36308;46.312;25.288;2023-07-31T08:06:08;1.80;;;1.50;;
50393;SDS011;36308;46.312;25.288;2023-07-31T08:08:34;2.05;;;1.60;;
50393;SDS011;36308;46.312;25.288;2023-07-31T08:11:03;3.28;;;1.67;;
50393;SDS011;36308;46.312;25.288;2023-07-31T08:13:29;1.83;;;1.40;;
50393;SDS011;36308;46.312;25.288;2023-07-31T08:15:54;1.50;;;1.40;;
50393;SDS011;36308;46.312;25.288;2023-07-31T08:18:20;1.67;;;1.05;;
50393;SDS011;36308;46.312;25.288;2023-07-31T08:20:46;1.73;;;1.38;;
50393;SDS011;36308;46.312;25.288;2023-07-31T08:23:11;1.60;;;1.42;;
50393;SDS011;36308;46.312;25.288;2023-07-31T08:25:37;1.50;;;1.38;;
50393;SDS011;36308;46.312;25.288;2023-07-31T08:28:04;1.92;;;1.40;;
50393;SDS011;36308;46.312;25.288;2023-07-31T08:30:30;1.77;;;1.45;;
50393;SDS011;36308;46.312;25.288;2023-07-31T08:32:55;2.30;;;1.58;;
50393;SDS011;36308;46.312;25.288;2023-07-31T08:35:22;4.40;;;1.50;;
50393;SDS011;36308;46.312;25.288;2023-07-31T08:37:49;2.15;;;1.40;;
50393;SDS011;36308;46.312;25.288;2023-07-31T08:40:14;4.43;;;1.55;;
50393;SDS011;36308;46.312;25.288;2023-07-31T08:42:44;1.33;;;1.23;;
50393;SDS011;36308;46.312;25.288;2023-07-31T08:45:12;1.48;;;1.38;;
50393;SDS011;36308;46.312;25.288;2023-07-31T08:47:41;2.55;;;1.40;;
50393;SDS011;36308;46.312;25.288;2023-07-31T08:50:10;1.67;;;1.45;;
50393;SDS011;36308;46.312;25.288;2023-07-31T08:52:37;2.25;;;1.13;;
50393;SDS011;36308;46.312;25.288;2023-07-31T08:55:03;2.15;;;1.20;;
50393;SDS011;36308;46.312;25.288;2023-07-31T08:57:29;1.98;;;1.23;;
50393;SDS011;36308;46.312;25.288;2023-07-31T08:59:55;1.92;;;1.55;;
50393;SDS011;36308;46.312;25.288;2023-07-31T09:02:22;2.78;;;1.35;;
50393;SDS011;36308;46.312;25.288;2023-07-31T09:04:54;2.22;;;1.02;;
50393;SDS011;36308;46.312;25.288;2023-07-31T09:07:19;3.15;;;1.10;;
50393;SDS011;36308;46.312;25.288;2023-07-31T09:09:46;1.70;;;1.40;;
50393;SDS011;36308;46.312;25.288;2023-07-31T09:12:12;2.75;;;1.35;;
50393;SDS011;36308;46.312;25.288;2023-07-31T09:14:38;1.70;;;1.33;;
50393;SDS011;36308;46.312;25.288;2023-07-31T09:17:04;2.40;;;1.35;;
50393;SDS011;36308;46.312;25.288;2023-07-31T09:19:32;2.60;;;1.58;;
50393;SDS011;36308;46.312;25.288;2023-07-31T09:21:59;1.30;;;1.20;;
50393;SDS011;36308;46.312;25.288;2023-07-31T09:24:29;3.45;;;1.55;;
50393;SDS011;36308;46.312;25.288;2023-07-31T09:26:55;3.00;;;1.40;;
50393;SDS011;36308;46.312;25.288;2023-07-31T09:29:22;2.53;;;1.63;;
50393;SDS011;36308;46.312;25.288;2023-07-31T09:31:48;2.22;;;1.33;;
50393;SDS011;36308;46.312;25.288;2023-07-31T09:34:13;2.58;;;1.40;;
50393;SDS011;36308;46.312;25.288;2023-07-31T09:36:49;1.73;;;1.00;;
50393;SDS011;36308;46.312;25.288;2023-07-31T09:39:35;5.47;;;1.65;;
50393;SDS011;36308;46.312;25.288;2023-07-31T09:42:11;2.55;;;1.30;;
50393;SDS011;36308;46.312;25.288;2023-07-31T09:44:37;1.98;;;1.40;;
50393;SDS011;36308;46.312;25.288;2023-07-31T09:47:06;1.63;;;1.40;;
50393;SDS011;36308;46.312;25.288;2023-07-31T09:49:31;2.50;;;1.73;;
50393;SDS011;36308;46.312;25.288;2023-07-31T09:51:57;1.50;;;1.40;;
50393;SDS011;36308;46.312;25.288;2023-07-31T09:54:41;2.72;;;1.85;;
50393;SDS011;36308;46.312;25.288;2023-07-31T09:57:07;2.28;;;1.75;;
50393;SDS011;36308;46.312;25.288;2023-07-31T09:59:34;1.73;;;1.60;;
50393;SDS011;36308;46.312;25.288;2023-07-31T10:02:01;1.55;;;1.45;;
50393;SDS011;36308;46.312;25.288;2023-07-31T10:04:27;2.13;;;1.50;;
50393;SDS011;36308;46.312;25.288;2023-07-31T10:06:53;1.77;;;1.50;;
50393;SDS011;36308;46.312;25.288;2023-07-31T10:09:20;2.03;;;1.55;;
50393;SDS011;36308;46.312;25.288;2023-07-31T10:11:53;2.88;;;1.80;;
50393;SDS011;36308;46.312;25.288;2023-07-31T10:14:24;1.98;;;1.50;;
50393;SDS011;36308;46.312;25.288;2023-07-31T10:16:51;1.92;;;1.38;;
50393;SDS011;36308;46.312;25.288;2023-07-31T10:19:18;2.03;;;1.33;;
50393;SDS011;36308;46.312;25.288;2023-07-31T10:21:44;1.73;;;1.58;;
50393;SDS011;36308;46.312;25.288;2023-07-31T10:24:10;3.35;;;1.60;;
50393;SDS011;36308;46.312;25.288;2023-07-31T10:26:37;2.38;;;1.33;;
50393;SDS011;36308;46.312;25.288;2023-07-31T10:29:04;1.30;;;1.20;;
50393;SDS011;36308;46.312;25.288;2023-07-31T10:31:31;1.92;;;1.40;;
50393;SDS011;36308;46.312;25.288;2023-07-31T10:33:59;3.92;;;1.60;;
50393;SDS011;36308;46.312;25.288;2023-07-31T10:36:25;3.85;;;1.90;;
50393;SDS011;36308;46.312;25.288;2023-07-31T10:38:52;3.20;;;1.50;;
50393;SDS011;36308;46.312;25.288;2023-07-31T10:41:17;3.88;;;1.50;;
50393;SDS011;36308;46.312;25.288;2023-07-31T10:43:45;1.67;;;1.58;;
50393;SDS011;36308;46.312;25.288;2023-07-31T10:46:12;2.33;;;1.60;;
50393;SDS011;36308;46.312;25.288;2023-07-31T10:48:39;1.40;;;1.30;;
50393;SDS011;36308;46.312;25.288;2023-07-31T10:51:09;1.25;;;1.05;;
50393;SDS011;36308;46.312;25.288;2023-07-31T10:53:37;4.40;;;1.40;;
50393;SDS011;36308;46.312;25.288;2023-07-31T10:56:06;1.60;;;1.30;;
50393;SDS011;36308;46.312;25.288;2023-07-31T10:58:40;2.13;;;1.25;;
50393;SDS011;36308;46.312;25.288;2023-07-31T11:01:09;1.40;;;1.30;;
50393;SDS011;36308;46.312;25.288;2023-07-31T11:03:41;1.92;;;1.30;;
50393;SDS011;36308;46.312;25.288;2023-07-31T11:06:12;1.75;;;1.63;;
50393;SDS011;36308;46.312;25.288;2023-07-31T11:08:42;1.77;;;1.38;;
50393;SDS011;36308;46.312;25.288;2023-07-31T11:11:10;2.55;;;1.30;;
50393;SDS011;36308;46.312;25.288;2023-07-31T11:16:11;2.05;;;1.42;;
50393;SDS011;36308;46.312;25.288;2023-07-31T11:18:38;3.13;;;1.70;;
50393;SDS011;36308;46.312;25.288;2023-07-31T11:21:06;1.48;;;1.38;;
50393;SDS011;36308;46.312;25.288;2023-07-31T11:23:32;3.30;;;1.45;;
50393;SDS011;36308;46.312;25.288;2023-07-31T11:25:58;1.85;;;1.23;;
50393;SDS011;36308;46.312;25.288;2023-07-31T11:28:25;1.38;;;1.25;;
50393;SDS011;36308;46.312;25.288;2023-07-31T11:30:50;1.92;;;1.27;;
50393;SDS011;36308;46.312;25.288;2023-07-31T11:33:16;2.10;;;1.35;;
50393;SDS011;36308;46.312;25.288;2023-07-31T11:38:12;1.70;;;1.20;;
50393;SDS011;36308;46.312;25.288;2023-07-31T11:40:46;2.75;;;1.30;;
50393;SDS011;36308;46.312;25.288;2023-07-31T11:43:12;1.80;;;1.15;;
50393;SDS011;36308;46.312;25.288;2023-07-31T11:45:42;1.23;;;1.10;;
50393;SDS011;36308;46.312;25.288;2023-07-31T11:48:18;2.25;;;1.20;;
50393;SDS011;36308;46.312;25.288;2023-07-31T11:50:56;1.38;;;1.27;;
50393;SDS011;36308;46.312;25.288;2023-07-31T11:53:25;3.45;;;1.15;;
50393;SDS011;36308;46.312;25.288;2023-07-31T11:55:55;1.67;;;1.38;;
50393;SDS011;36308;46.312;25.288;2023-07-31T11:58:23;2.45;;;1.20;;
50393;SDS011;36308;46.312;25.288;2023-07-31T12:00:49;1.75;;;1.40;;
50393;SDS011;36308;46.312;25.288;2023-07-31T12:03:15;1.23;;;1.13;;
50393;SDS011;36308;46.312;25.288;2023-07-31T12:05:41;1.30;;;1.20;;
50393;SDS011;36308;46.312;25.288;2023-07-31T12:08:10;2.58;;;1.15;;
50393;SDS011;36308;46.312;25.288;2023-07-31T12:10:39;2.45;;;1.15;;
50393;SDS011;36308;46.312;25.288;2023-07-31T12:15:35;1.27;;;0.82;;
50393;SDS011;36308;46.312;25.288;2023-07-31T12:18:06;2.17;;;1.10;;
50393;SDS011;36308;46.312;25.288;2023-07-31T12:20:32;2.35;;;1.17;;
50393;SDS011;36308;46.312;25.288;2023-07-31T12:22:59;1.17;;;1.08;;
50393;SDS011;36308;46.312;25.288;2023-07-31T12:25:33;0.80;;;0.80;;
50393;SDS011;36308;46.312;25.288;2023-07-31T12:28:05;1.20;;;1.08;;
50393;SDS011;36308;46.312;25.288;2023-07-31T12:30:34;1.50;;;1.27;;
50393;SDS011;36308;46.312;25.288;2023-07-31T12:33:18;1.40;;;1.30;;
50393;SDS011;36308;46.312;25.288;2023-07-31T12:35:45;1.10;;;1.00;;
50393;SDS011;36308;46.312;25.288;2023-07-31T12:38:12;1.00;;;0.90;;
50393;SDS011;36308;46.312;25.288;2023-07-31T12:40:39;1.30;;;1.20;;
50393;SDS011;36308;46.312;25.288;2023-07-31T12:43:06;1.08;;;1.00;;
50393;SDS011;36308;46.312;25.288;2023-07-31T12:45:32;1.98;;;0.98;;
50393;SDS011;36308;46.312;25.288;2023-07-31T12:47:58;1.30;;;1.10;;
50393;SDS011;36308;46.312;25.288;2023-07-31T12:50:24;1.25;;;1.15;;
50393;SDS011;36308;46.312;25.288;2023-07-31T12:52:51;1.20;;;1.10;;
50393;SDS011;36308;46.312;25.288;2023-07-31T12:55:18;2.47;;;1.48;;
50393;SDS011;36308;46.312;25.288;2023-07-31T12:57:44;1.25;;;0.98;;
50393;SDS011;36308;46.312;25.288;2023-07-31T13:00:09;1.70;;;1.13;;
50393;SDS011;36308;46.312;25.288;2023-07-31T13:05:57;2.65;;;1.33;;
50393;SDS011;36308;46.312;25.288;2023-07-31T13:08:23;3.03;;;0.88;;
50393;SDS011;36308;46.312;25.288;2023-07-31T13:10:48;1.02;;;0.93;;
50393;SDS011;36308;46.312;25.288;2023-07-31T13:13:14;3.53;;;1.20;;
50393;SDS011;36308;46.312;25.288;2023-07-31T13:15:39;1.50;;;1.20;;
50393;SDS011;36308;46.312;25.288;2023-07-31T13:18:05;1.23;;;1.08;;
50393;SDS011;36308;46.312;25.288;2023-07-31T13:20:32;3.20;;;1.40;;
50393;SDS011;36308;46.312;25.288;2023-07-31T13:22:57;1.42;;;1.15;;
50393;SDS011;36308;46.312;25.288;2023-07-31T13:25:23;2.28;;;1.27;;
50393;SDS011;36308;46.312;25.288;2023-07-31T13:27:49;1.23;;;1.13;;
50393;SDS011;36308;46.312;25.288;2023-07-31T13:30:14;1.83;;;1.10;;
50393;SDS011;36308;46.312;25.288;2023-07-31T13:32:40;2.25;;;1.40;;
50393;SDS011;36308;46.312;25.288;2023-07-31T13:35:06;2.10;;;1.10;;
50393;SDS011;36308;46.312;25.288;2023-07-31T13:37:33;1.40;;;1.30;;
50393;SDS011;36308;46.312;25.288;2023-07-31T13:39:58;1.20;;;1.05;;
50393;SDS011;36308;46.312;25.288;2023-07-31T13:42:24;2.70;;;1.35;;
50393;SDS011;36308;46.312;25.288;2023-07-31T13:44:49;1.85;;;1.30;;
50393;SDS011;36308;46.312;25.288;2023-07-31T13:47:15;4.70;;;1.65;;
50393;SDS011;36308;46.312;25.288;2023-07-31T13:49:40;4.43;;;1.70;;
50393;SDS011;36308;46.312;25.288;2023-07-31T13:52:08;2.20;;;1.30;;
50393;SDS011;36308;46.312;25.288;2023-07-31T13:54:33;3.42;;;1.20;;
50393;SDS011;36308;46.312;25.288;2023-07-31T13:57:02;11.05;;;8.73;;
50393;SDS011;36308;46.312;25.288;2023-07-31T13:59:27;3.25;;;1.13;;
50393;SDS011;36308;46.312;25.288;2023-07-31T14:01:53;4.85;;;1.17;;
50393;SDS011;36308;46.312;25.288;2023-07-31T14:04:18;6.90;;;2.15;;
50393;SDS011;36308;46.312;25.288;2023-07-31T14:06:44;8.10;;;2.40;;
50393;SDS011;36308;46.312;25.288;2023-07-31T14:09:10;10.18;;;2.10;;
50393;SDS011;36308;46.312;25.288;2023-07-31T14:11:35;4.07;;;1.10;;
50393;SDS011;36308;46.312;25.288;2023-07-31T14:14:01;5.20;;;1.63;;
50393;SDS011;36308;46.312;25.288;2023-07-31T14:16:27;3.95;;;1.20;;
50393;SDS011;36308;46.312;25.288;2023-07-31T14:18:53;4.10;;;1.52;;
50393;SDS011;36308;46.312;25.288;2023-07-31T14:21:19;4.22;;;1.35;;
50393;SDS011;36308;46.312;25.288;2023-07-31T14:23:45;5.80;;;1.30;;
50393;SDS011;36308;46.312;25.288;2023-07-31T14:26:11;5.60;;;1.60;;
50393;SDS011;36308;46.312;25.288;2023-07-31T14:28:36;5.05;;;1.52;;
50393;SDS011;36308;46.312;25.288;2023-07-31T14:31:02;4.05;;;1.65;;
50393;SDS011;36308;46.312;25.288;2023-07-31T14:33:28;87.50;;;23.75;;
50393;SDS011;36308;46.312;25.288;2023-07-31T14:35:53;110.20;;;29.38;;
50393;SDS011;36308;46.312;25.288;2023-07-31T14:38:19;46.47;;;12.85;;
50393;SDS011;36308;46.312;25.288;2023-07-31T14:40:44;17.20;;;5.25;;
50393;SDS011;36308;46.312;25.288;2023-07-31T14:43:10;7.25;;;2.38;;
50393;SDS011;36308;46.312;25.288;2023-07-31T14:45:35;1.98;;;1.02;;
50393;SDS011;36308;46.312;25.288;2023-07-31T14:48:01;3.33;;;1.10;;
50393;SDS011;36308;46.312;25.288;2023-07-31T14:50:27;4.40;;;1.30;;
50393;SDS011;36308;46.312;25.288;2023-07-31T14:52:53;4.45;;;1.50;;